Time,TemperatureF,DewpointF,PressureIn,WindDirection,WindDirectionDegrees,WindSpeedMPH,WindSpeedGustMPH,Humidity,HourlyPrecipIn,Conditions,Clouds,dailyrainin,SoftwareType,DateUTC
2013-03-22 00:00:00,28.1,12.3,29.66,North,0,3.0,8.0,51,0.00,,,-99.99,WeatherLink 5.7,2013-03-22 04:00:00,
2013-03-22 00:05:00,28.1,12.3,29.66,North,0,2.0,8.0,51,0.00,,,-99.99,WeatherLink 5.7,2013-03-22 04:05:00,
2013-03-22 00:10:00,27.9,11.6,29.66,NW,315,2.0,8.0,50,0.00,,,-99.99,WeatherLink 5.7,2013-03-22 04:10:00,
2013-03-22 00:15:00,27.8,11.5,29.66,NW,315,4.0,8.0,50,0.00,,,-99.99,WeatherLink 5.7,2013-03-22 04:15:00,
2013-03-22 00:20:00,27.6,11.4,29.66,NNW,337,4.0,10.0,50,0.00,,,-99.99,WeatherLink 5.7,2013-03-22 04:20:00,
2013-03-22 00:25:00,27.6,11.8,29.66,NW,315,1.0,8.0,51,0.00,,,-99.99,WeatherLink 5.7,2013-03-22 04:25:00,
2013-03-22 00:30:00,27.5,11.7,29.66,NW,315,2.0,8.0,51,0.00,,,-99.99,WeatherLink 5.7,2013-03-22 04:30:00,
2013-03-22 00:35:00,27.3,12.0,29.66,NW,315,2.0,8.0,52,0.00,,,-99.99,WeatherLink 5.7,2013-03-22 04:35:00,
2013-03-22 00:40:00,27.3,11.5,29.66,North,0,3.0,7.0,51,0.00,,,-99.99,WeatherLink 5.7,2013-03-22 04:40:00,
2013-03-22 00:45:00,27.3,11.5,29.66,NW,315,2.0,7.0,51,0.00,,,-99.99,WeatherLink 5.7,2013-03-22 04:45:00,
2013-03-22 00:50:00,27.3,12.0,29.66,NW,315,1.0,6.0,52,0.00,,,-99.99,WeatherLink 5.7,2013-03-22 04:50:00,
2013-03-22 00:55:00,27.2,11.9,29.66,NW,315,2.0,8.0,52,0.00,,,-99.99,WeatherLink 5.7,2013-03-22 04:55:00,
2013-03-22 01:00:00,27.2,11.9,29.66,NW,315,3.0,10.0,52,0.00,,,-99.99,WeatherLink 5.7,2013-03-22 05:00:00,
2013-03-22 01:05:00,27.0,11.7,29.66,NW,315,2.0,8.0,52,0.00,,,-99.99,WeatherLink 5.7,2013-03-22 05:05:00,
2013-03-22 01:10:00,27.0,12.1,29.66,NW,315,3.0,10.0,53,0.00,,,-99.99,WeatherLink 5.7,2013-03-22 05:10:00,
2013-03-22 01:15:00,27.0,12.1,29.66,NNW,337,1.0,6.0,53,0.00,,,-99.99,WeatherLink 5.7,2013-03-22 05:15:00,
2013-03-22 01:20:00,26.9,12.0,29.66,NW,315,2.0,7.0,53,0.00,,,-99.99,WeatherLink 5.7,2013-03-22 05:20:00,
2013-03-22 01:25:00,26.9,12.0,29.66,NW,315,3.0,7.0,53,0.00,,,-99.99,WeatherLink 5.7,2013-03-22 05:25:00,
2013-03-22 01:30:00,26.7,12.3,29.67,NW,315,1.0,6.0,54,0.00,,,-99.99,WeatherLink 5.7,2013-03-22 05:30:00,
2013-03-22 01:35:00,26.7,11.8,29.67,NW,315,2.0,6.0,53,0.00,,,-99.99,WeatherLink 5.7,2013-03-22 05:35:00,
2013-03-22 01:40:00,26.6,11.7,29.67,NW,315,1.0,6.0,53,0.00,,,-99.99,WeatherLink 5.7,2013-03-22 05:40:00,
2013-03-22 01:45:00,26.6,12.2,29.67,NW,315,1.0,5.0,54,0.00,,,-99.99,WeatherLink 5.7,2013-03-22 05:45:00,
2013-03-22 01:50:00,26.4,12.0,29.67,NW,315,2.0,8.0,54,0.00,,,-99.99,WeatherLink 5.7,2013-03-22 05:50:00,
2013-03-22 01:55:00,26.3,11.9,29.67,WNW,292,1.0,5.0,54,0.00,,,-99.99,WeatherLink 5.7,2013-03-22 05:55:00,
2013-03-22 02:00:00,26.3,11.9,29.67,NW,315,1.0,6.0,54,0.00,,,-99.99,WeatherLink 5.7,2013-03-22 06:00:00,
2013-03-22 02:05:00,26.1,12.1,29.67,NW,315,1.0,5.0,55,0.00,,,-99.99,WeatherLink 5.7,2013-03-22 06:05:00,
2013-03-22 02:10:00,26.1,12.1,29.67,North,-999,0.0,0.0,55,0.00,,,-99.99,WeatherLink 5.7,2013-03-22 06:10:00,
2013-03-22 02:15:00,26.0,12.4,29.67,NNW,337,0.0,5.0,56,0.00,,,-99.99,WeatherLink 5.7,2013-03-22 06:15:00,
2013-03-22 02:20:00,25.8,12.2,29.67,WNW,292,1.0,6.0,56,0.00,,,-99.99,WeatherLink 5.7,2013-03-22 06:20:00,
2013-03-22 02:25:00,25.7,12.2,29.67,WNW,292,1.0,4.0,56,0.00,,,-99.99,WeatherLink 5.7,2013-03-22 06:25:00,
2013-03-22 02:30:00,25.6,12.1,29.67,WNW,292,1.0,6.0,56,0.00,,,-99.99,WeatherLink 5.7,2013-03-22 06:30:00,
2013-03-22 02:35:00,25.4,12.3,29.67,NW,315,1.0,6.0,57,0.00,,,-99.99,WeatherLink 5.7,2013-03-22 06:35:00,
2013-03-22 02:40:00,25.4,12.3,29.67,NW,315,0.0,5.0,57,0.00,,,-99.99,WeatherLink 5.7,2013-03-22 06:40:00,
2013-03-22 02:45:00,25.3,12.2,29.67,NW,315,0.0,2.0,57,0.00,,,-99.99,WeatherLink 5.7,2013-03-22 06:45:00,
2013-03-22 02:50:00,25.1,12.0,29.67,NW,315,1.0,4.0,57,0.00,,,-99.99,WeatherLink 5.7,2013-03-22 06:50:00,
2013-03-22 02:55:00,25.0,12.3,29.67,WNW,292,0.0,3.0,58,0.00,,,-99.99,WeatherLink 5.7,2013-03-22 06:55:00,
2013-03-22 03:00:00,24.8,12.1,29.66,North,-999,0.0,0.0,58,0.00,,,-99.99,WeatherLink 5.7,2013-03-22 07:00:00,
2013-03-22 03:05:00,24.7,12.0,29.66,NW,315,1.0,6.0,58,0.00,,,-99.99,WeatherLink 5.7,2013-03-22 07:05:00,
2013-03-22 03:10:00,24.5,11.8,29.66,NW,315,1.0,5.0,58,0.00,,,-99.99,WeatherLink 5.7,2013-03-22 07:10:00,
2013-03-22 03:15:00,24.4,11.7,29.66,NW,315,1.0,6.0,58,0.00,,,-99.99,WeatherLink 5.7,2013-03-22 07:15:00,
2013-03-22 03:20:00,24.4,11.7,29.66,West,270,0.0,5.0,58,0.00,,,-99.99,WeatherLink 5.7,2013-03-22 07:20:00,
2013-03-22 03:25:00,24.2,11.5,29.66,West,270,0.0,3.0,58,0.00,,,-99.99,WeatherLink 5.7,2013-03-22 07:25:00,
2013-03-22 03:30:00,24.1,11.4,29.66,WNW,292,0.0,3.0,58,0.00,,,-99.99,WeatherLink 5.7,2013-03-22 07:30:00,
2013-03-22 03:35:00,24.1,11.4,29.66,North,-999,0.0,0.0,58,0.00,,,-99.99,WeatherLink 5.7,2013-03-22 07:35:00,
2013-03-22 03:40:00,23.9,11.3,29.66,NW,315,0.0,6.0,58,0.00,,,-99.99,WeatherLink 5.7,2013-03-22 07:40:00,
2013-03-22 03:45:00,23.9,11.3,29.65,North,-999,0.0,0.0,58,0.00,,,-99.99,WeatherLink 5.7,2013-03-22 07:45:00,
2013-03-22 03:50:00,23.8,11.2,29.65,North,-999,0.0,0.0,58,0.00,,,-99.99,WeatherLink 5.7,2013-03-22 07:50:00,
2013-03-22 03:55:00,23.6,11.0,29.65,NW,315,0.0,2.0,58,0.00,,,-99.99,WeatherLink 5.7,2013-03-22 07:55:00,
2013-03-22 04:00:00,23.6,11.4,29.65,North,-999,0.0,0.0,59,0.00,,,-99.99,WeatherLink 5.7,2013-03-22 08:00:00,
2013-03-22 04:05:00,23.3,11.4,29.65,North,-999,0.0,0.0,60,0.00,,,-99.99,WeatherLink 5.7,2013-03-22 08:05:00,
2013-03-22 04:10:00,23.2,11.7,29.65,North,-999,0.0,0.0,61,0.00,,,-99.99,WeatherLink 5.7,2013-03-22 08:10:00,
2013-03-22 04:15:00,23.0,11.5,29.66,North,-999,0.0,0.0,61,0.00,,,-99.99,WeatherLink 5.7,2013-03-22 08:15:00,
2013-03-22 04:20:00,22.9,11.8,29.66,North,-999,0.0,0.0,62,0.00,,,-99.99,WeatherLink 5.7,2013-03-22 08:20:00,
2013-03-22 04:25:00,22.7,11.3,29.66,NW,315,0.0,3.0,61,0.00,,,-99.99,WeatherLink 5.7,2013-03-22 08:25:00,
2013-03-22 04:30:00,22.5,11.4,29.66,North,-999,0.0,0.0,62,0.00,,,-99.99,WeatherLink 5.7,2013-03-22 08:30:00,
2013-03-22 04:35:00,22.2,11.5,29.66,NW,315,0.0,2.0,63,0.00,,,-99.99,WeatherLink 5.7,2013-03-22 08:35:00,
2013-03-22 04:40:00,21.9,12.3,29.66,NW,315,0.0,1.0,66,0.00,,,-99.99,WeatherLink 5.7,2013-03-22 08:40:00,
2013-03-22 04:45:00,21.6,12.0,29.66,NW,315,0.0,3.0,66,0.00,,,-99.99,WeatherLink 5.7,2013-03-22 08:45:00,
2013-03-22 04:50:00,21.3,11.7,29.66,NW,315,0.0,2.0,66,0.00,,,-99.99,WeatherLink 5.7,2013-03-22 08:50:00,
2013-03-22 04:55:00,21.3,11.7,29.66,NW,315,1.0,3.0,66,0.00,,,-99.99,WeatherLink 5.7,2013-03-22 08:55:00,
2013-03-22 05:00:00,21.3,11.4,29.67,WNW,292,1.0,5.0,65,0.00,,,-99.99,WeatherLink 5.7,2013-03-22 09:00:00,
2013-03-22 05:05:00,21.3,11.4,29.67,West,270,0.0,4.0,65,0.00,,,-99.99,WeatherLink 5.7,2013-03-22 09:05:00,
2013-03-22 05:10:00,21.4,11.1,29.67,NW,315,0.0,5.0,64,0.00,,,-99.99,WeatherLink 5.7,2013-03-22 09:10:00,
2013-03-22 05:15:00,21.4,11.1,29.67,NW,315,0.0,3.0,64,0.00,,,-99.99,WeatherLink 5.7,2013-03-22 09:15:00,
2013-03-22 05:20:00,21.4,11.1,29.67,North,-999,0.0,0.0,64,0.00,,,-99.99,WeatherLink 5.7,2013-03-22 09:20:00,
2013-03-22 05:25:00,21.4,10.7,29.67,North,-999,0.0,0.0,63,0.00,,,-99.99,WeatherLink 5.7,2013-03-22 09:25:00,
2013-03-22 05:30:00,21.4,10.7,29.67,North,-999,0.0,0.0,63,0.00,,,-99.99,WeatherLink 5.7,2013-03-22 09:30:00,
2013-03-22 05:35:00,21.4,11.1,29.67,North,-999,0.0,0.0,64,0.00,,,-99.99,WeatherLink 5.7,2013-03-22 09:35:00,
2013-03-22 05:40:00,21.1,11.2,29.67,North,-999,0.0,0.0,65,0.00,,,-99.99,WeatherLink 5.7,2013-03-22 09:40:00,
2013-03-22 05:45:00,20.8,11.2,29.67,North,-999,0.0,0.0,66,0.00,,,-99.99,WeatherLink 5.7,2013-03-22 09:45:00,
2013-03-22 05:50:00,20.5,11.6,29.67,NW,315,0.0,1.0,68,0.00,,,-99.99,WeatherLink 5.7,2013-03-22 09:50:00,
2013-03-22 05:55:00,20.2,11.7,29.67,North,-999,0.0,0.0,69,0.00,,,-99.99,WeatherLink 5.7,2013-03-22 09:55:00,
2013-03-22 06:00:00,20.0,11.5,29.68,North,-999,0.0,0.0,69,0.00,,,-99.99,WeatherLink 5.7,2013-03-22 10:00:00,
2013-03-22 06:05:00,19.7,11.5,29.68,North,-999,0.0,0.0,70,0.00,,,-99.99,WeatherLink 5.7,2013-03-22 10:05:00,
2013-03-22 06:10:00,19.4,11.5,29.68,NW,315,0.0,1.0,71,0.00,,,-99.99,WeatherLink 5.7,2013-03-22 10:10:00,
2013-03-22 06:15:00,19.2,11.3,29.68,North,-999,0.0,0.0,71,0.00,,,-99.99,WeatherLink 5.7,2013-03-22 10:15:00,
2013-03-22 06:20:00,19.1,11.2,29.68,North,-999,0.0,0.0,71,0.00,,,-99.99,WeatherLink 5.7,2013-03-22 10:20:00,
2013-03-22 06:25:00,18.9,11.4,29.68,North,-999,0.0,0.0,72,0.00,,,-99.99,WeatherLink 5.7,2013-03-22 10:25:00,
2013-03-22 06:30:00,18.6,11.4,29.69,North,-999,0.0,0.0,73,0.00,,,-99.99,WeatherLink 5.7,2013-03-22 10:30:00,
2013-03-22 06:35:00,18.4,11.2,29.69,North,-999,0.0,0.0,73,0.00,,,-99.99,WeatherLink 5.7,2013-03-22 10:35:00,
2013-03-22 06:40:00,18.4,11.2,29.69,North,-999,0.0,0.0,73,0.00,,,-99.99,WeatherLink 5.7,2013-03-22 10:40:00,
2013-03-22 06:45:00,18.3,11.1,29.70,NW,315,0.0,1.0,73,0.00,,,-99.99,WeatherLink 5.7,2013-03-22 10:45:00,
2013-03-22 06:50:00,18.1,11.2,29.70,North,-999,0.0,0.0,74,0.00,,,-99.99,WeatherLink 5.7,2013-03-22 10:50:00,
2013-03-22 06:55:00,18.1,11.2,29.70,NW,315,0.0,1.0,74,0.00,,,-99.99,WeatherLink 5.7,2013-03-22 10:55:00,
2013-03-22 07:00:00,18.3,11.4,29.70,NW,315,0.0,1.0,74,0.00,,,-99.99,WeatherLink 5.7,2013-03-22 11:00:00,
2013-03-22 07:05:00,18.3,11.4,29.70,North,-999,0.0,0.0,74,0.00,,,-99.99,WeatherLink 5.7,2013-03-22 11:05:00,
2013-03-22 07:10:00,18.3,11.4,29.70,NW,315,0.0,1.0,74,0.00,,,-99.99,WeatherLink 5.7,2013-03-22 11:10:00,
2013-03-22 07:15:00,18.4,11.8,29.70,North,-999,0.0,0.0,75,0.00,,,-99.99,WeatherLink 5.7,2013-03-22 11:15:00,
2013-03-22 07:20:00,18.6,12.0,29.70,North,-999,0.0,0.0,75,0.00,,,-99.99,WeatherLink 5.7,2013-03-22 11:20:00,
2013-03-22 07:25:00,18.9,12.0,29.70,NW,315,0.0,2.0,74,0.00,,,-99.99,WeatherLink 5.7,2013-03-22 11:25:00,
2013-03-22 07:30:00,19.2,12.0,29.70,North,-999,0.0,0.0,73,0.00,,,-99.99,WeatherLink 5.7,2013-03-22 11:30:00,
2013-03-22 07:35:00,19.5,11.9,29.70,North,-999,0.0,0.0,72,0.00,,,-99.99,WeatherLink 5.7,2013-03-22 11:35:00,
2013-03-22 07:40:00,20.0,12.1,29.70,North,-999,0.0,0.0,71,0.00,,,-99.99,WeatherLink 5.7,2013-03-22 11:40:00,
2013-03-22 07:45:00,20.5,11.9,29.71,North,-999,0.0,0.0,69,0.00,,,-99.99,WeatherLink 5.7,2013-03-22 11:45:00,
2013-03-22 07:50:00,21.1,12.2,29.71,North,-999,0.0,0.0,68,0.00,,,-99.99,WeatherLink 5.7,2013-03-22 11:50:00,
2013-03-22 07:55:00,21.6,12.3,29.71,North,-999,0.0,0.0,67,0.00,,,-99.99,WeatherLink 5.7,2013-03-22 11:55:00,
2013-03-22 08:00:00,22.2,12.6,29.71,North,-999,0.0,0.0,66,0.00,,,-99.99,WeatherLink 5.7,2013-03-22 12:00:00,
2013-03-22 08:05:00,22.7,12.7,29.71,North,-999,0.0,0.0,65,0.00,,,-99.99,WeatherLink 5.7,2013-03-22 12:05:00,
2013-03-22 08:10:00,23.2,12.5,29.71,NW,315,0.0,2.0,63,0.00,,,-99.99,WeatherLink 5.7,2013-03-22 12:10:00,
2013-03-22 08:15:00,23.8,12.7,29.71,NW,315,0.0,3.0,62,0.00,,,-99.99,WeatherLink 5.7,2013-03-22 12:15:00,
2013-03-22 08:20:00,24.2,12.7,29.71,WNW,292,2.0,6.0,61,0.00,,,-99.99,WeatherLink 5.7,2013-03-22 12:20:00,
2013-03-22 08:25:00,24.5,13.0,29.71,WNW,292,1.0,3.0,61,0.00,,,-99.99,WeatherLink 5.7,2013-03-22 12:25:00,
2013-03-22 08:30:00,24.8,13.2,29.71,WNW,292,1.0,3.0,61,0.00,,,-99.99,WeatherLink 5.7,2013-03-22 12:30:00,
2013-03-22 08:35:00,25.3,13.7,29.71,NW,315,3.0,11.0,61,0.00,,,-99.99,WeatherLink 5.7,2013-03-22 12:35:00,
2013-03-22 08:40:00,25.6,14.0,29.71,WNW,292,4.0,8.0,61,0.00,,,-99.99,WeatherLink 5.7,2013-03-22 12:40:00,
2013-03-22 08:45:00,25.7,14.1,29.72,NW,315,4.0,8.0,61,0.00,,,-99.99,WeatherLink 5.7,2013-03-22 12:45:00,
2013-03-22 08:50:00,25.8,13.8,29.72,NW,315,4.0,10.0,60,0.00,,,-99.99,WeatherLink 5.7,2013-03-22 12:50:00,
2013-03-22 08:55:00,26.0,14.0,29.72,NW,315,3.0,8.0,60,0.00,,,-99.99,WeatherLink 5.7,2013-03-22 12:55:00,
2013-03-22 09:00:00,26.3,14.3,29.72,NW,315,2.0,6.0,60,0.00,,,-99.99,WeatherLink 5.7,2013-03-22 13:00:00,
2013-03-22 09:05:00,26.4,14.4,29.72,NW,315,4.0,10.0,60,0.00,,,-99.99,WeatherLink 5.7,2013-03-22 13:05:00,
2013-03-22 09:10:00,26.7,14.7,29.72,NNW,337,2.0,6.0,60,0.00,,,-99.99,WeatherLink 5.7,2013-03-22 13:10:00,
2013-03-22 09:15:00,27.2,14.8,29.72,NNW,337,3.0,8.0,59,0.00,,,-99.99,WeatherLink 5.7,2013-03-22 13:15:00,
2013-03-22 09:20:00,27.5,15.0,29.72,NW,315,1.0,5.0,59,0.00,,,-99.99,WeatherLink 5.7,2013-03-22 13:20:00,
2013-03-22 09:25:00,27.8,15.7,29.72,NW,315,4.0,11.0,60,0.00,,,-99.99,WeatherLink 5.7,2013-03-22 13:25:00,
2013-03-22 09:30:00,28.2,16.1,29.72,NW,315,1.0,6.0,60,0.00,,,-99.99,WeatherLink 5.7,2013-03-22 13:30:00,
2013-03-22 09:35:00,28.4,16.3,29.72,NW,315,5.0,11.0,60,0.00,,,-99.99,WeatherLink 5.7,2013-03-22 13:35:00,
2013-03-22 09:40:00,28.5,16.7,29.72,NW,315,4.0,12.0,61,0.00,,,-99.99,WeatherLink 5.7,2013-03-22 13:40:00,
2013-03-22 09:45:00,29.0,17.2,29.72,NW,315,2.0,11.0,61,0.00,,,-99.99,WeatherLink 5.7,2013-03-22 13:45:00,
2013-03-22 09:50:00,29.5,17.3,29.72,WNW,292,3.0,8.0,60,0.00,,,-99.99,WeatherLink 5.7,2013-03-22 13:50:00,
2013-03-22 09:55:00,29.7,17.5,29.72,WNW,292,4.0,11.0,60,0.00,,,-99.99,WeatherLink 5.7,2013-03-22 13:55:00,
2013-03-22 10:00:00,30.0,17.4,29.72,WNW,292,1.0,8.0,59,0.00,,,-99.99,WeatherLink 5.7,2013-03-22 14:00:00,
2013-03-22 10:05:00,30.1,17.9,29.72,WNW,292,5.0,10.0,60,0.00,,,-99.99,WeatherLink 5.7,2013-03-22 14:05:00,
2013-03-22 10:10:00,30.1,17.9,29.72,NW,315,5.0,13.0,60,0.00,,,-99.99,WeatherLink 5.7,2013-03-22 14:10:00,
2013-03-22 10:15:00,30.1,17.5,29.72,NNW,337,5.0,11.0,59,0.00,,,-99.99,WeatherLink 5.7,2013-03-22 14:15:00,
2013-03-22 10:20:00,30.6,18.3,29.72,NNW,337,2.0,9.0,60,0.00,,,-99.99,WeatherLink 5.7,2013-03-22 14:20:00,
2013-03-22 10:25:00,30.9,17.4,29.72,WNW,292,5.0,13.0,57,0.00,,,-99.99,WeatherLink 5.7,2013-03-22 14:25:00,
2013-03-22 10:30:00,30.7,18.1,29.71,NW,315,4.0,11.0,59,0.00,,,-99.99,WeatherLink 5.7,2013-03-22 14:30:00,
2013-03-22 10:35:00,31.0,17.9,29.71,NW,315,4.0,10.0,58,0.00,,,-99.99,WeatherLink 5.7,2013-03-22 14:35:00,
2013-03-22 10:40:00,31.6,18.5,29.71,NW,315,2.0,7.0,58,0.00,,,-99.99,WeatherLink 5.7,2013-03-22 14:40:00,
2013-03-22 10:45:00,31.9,18.4,29.72,NW,315,6.0,16.0,57,0.00,,,-99.99,WeatherLink 5.7,2013-03-22 14:45:00,
2013-03-22 10:50:00,32.1,18.6,29.72,NW,315,6.0,12.0,57,0.00,,,-99.99,WeatherLink 5.7,2013-03-22 14:50:00,
2013-03-22 10:55:00,32.4,18.8,29.72,NW,315,8.0,16.0,57,0.00,,,-99.99,WeatherLink 5.7,2013-03-22 14:55:00,
2013-03-22 11:00:00,32.5,18.9,29.72,WNW,292,6.0,12.0,57,0.00,,,-99.99,WeatherLink 5.7,2013-03-22 15:00:00,
2013-03-22 11:05:00,32.7,19.1,29.72,NW,315,6.0,12.0,57,0.00,,,-99.99,WeatherLink 5.7,2013-03-22 15:05:00,
2013-03-22 11:10:00,32.8,19.2,29.72,WNW,292,4.0,11.0,57,0.00,,,-99.99,WeatherLink 5.7,2013-03-22 15:10:00,
2013-03-22 11:15:00,32.8,18.8,29.72,NW,315,7.0,13.0,56,0.00,,,-99.99,WeatherLink 5.7,2013-03-22 15:15:00,
2013-03-22 11:20:00,32.8,18.8,29.72,North,0,4.0,11.0,56,0.00,,,-99.99,WeatherLink 5.7,2013-03-22 15:20:00,
2013-03-22 11:25:00,33.1,18.7,29.72,NW,315,3.0,8.0,55,0.00,,,-99.99,WeatherLink 5.7,2013-03-22 15:25:00,
2013-03-22 11:30:00,33.1,18.7,29.72,NW,315,5.0,13.0,55,0.00,,,-99.99,WeatherLink 5.7,2013-03-22 15:30:00,
2013-03-22 11:35:00,32.9,18.5,29.72,WNW,292,5.0,12.0,55,0.00,,,-99.99,WeatherLink 5.7,2013-03-22 15:35:00,
2013-03-22 11:40:00,33.2,19.2,29.72,WNW,292,3.0,10.0,56,0.00,,,-99.99,WeatherLink 5.7,2013-03-22 15:40:00,
2013-03-22 11:45:00,33.2,18.8,29.71,North,0,2.0,7.0,55,0.00,,,-99.99,WeatherLink 5.7,2013-03-22 15:45:00,
2013-03-22 11:50:00,33.8,19.3,29.71,NNW,337,2.0,8.0,55,0.00,,,-99.99,WeatherLink 5.7,2013-03-22 15:50:00,
2013-03-22 11:55:00,34.3,18.9,29.71,NW,315,6.0,12.0,53,0.00,,,-99.99,WeatherLink 5.7,2013-03-22 15:55:00,
2013-03-22 12:00:00,34.0,18.6,29.71,NW,315,7.0,16.0,53,0.00,,,-99.99,WeatherLink 5.7,2013-03-22 16:00:00,
2013-03-22 12:05:00,34.0,18.6,29.71,WNW,292,5.0,12.0,53,0.00,,,-99.99,WeatherLink 5.7,2013-03-22 16:05:00,
2013-03-22 12:10:00,34.4,19.5,29.71,WNW,292,5.0,14.0,54,0.00,,,-99.99,WeatherLink 5.7,2013-03-22 16:10:00,
2013-03-22 12:15:00,34.7,19.7,29.70,NW,315,5.0,17.0,54,0.00,,,-99.99,WeatherLink 5.7,2013-03-22 16:15:00,
2013-03-22 12:20:00,34.9,19.5,29.70,NW,315,4.0,11.0,53,0.00,,,-99.99,WeatherLink 5.7,2013-03-22 16:20:00,
2013-03-22 12:25:00,35.2,19.3,29.70,North,0,2.0,6.0,52,0.00,,,-99.99,WeatherLink 5.7,2013-03-22 16:25:00,
2013-03-22 12:30:00,35.3,18.5,29.71,West,270,6.0,13.0,50,0.00,,,-99.99,WeatherLink 5.7,2013-03-22 16:30:00,
2013-03-22 12:35:00,35.2,18.9,29.71,NW,315,5.0,11.0,51,0.00,,,-99.99,WeatherLink 5.7,2013-03-22 16:35:00,
2013-03-22 12:40:00,35.3,19.0,29.71,WNW,292,4.0,10.0,51,0.00,,,-99.99,WeatherLink 5.7,2013-03-22 16:40:00,
2013-03-22 12:45:00,35.2,18.9,29.71,NW,315,8.0,14.0,51,0.00,,,-99.99,WeatherLink 5.7,2013-03-22 16:45:00,
2013-03-22 12:50:00,35.0,18.7,29.71,WNW,292,4.0,10.0,51,0.00,,,-99.99,WeatherLink 5.7,2013-03-22 16:50:00,
2013-03-22 12:55:00,34.9,19.0,29.71,WNW,292,5.0,12.0,52,0.00,,,-99.99,WeatherLink 5.7,2013-03-22 16:55:00,
2013-03-22 13:00:00,34.7,18.4,29.70,West,270,6.0,18.0,51,0.00,,,-99.99,WeatherLink 5.7,2013-03-22 17:00:00,
2013-03-22 13:05:00,34.9,18.6,29.70,NNW,337,6.0,12.0,51,0.00,,,-99.99,WeatherLink 5.7,2013-03-22 17:05:00,
2013-03-22 13:10:00,35.0,18.7,29.70,NNW,337,5.0,16.0,51,0.00,,,-99.99,WeatherLink 5.7,2013-03-22 17:10:00,
2013-03-22 13:15:00,35.0,18.7,29.71,NW,315,6.0,13.0,51,0.00,,,-99.99,WeatherLink 5.7,2013-03-22 17:15:00,
2013-03-22 13:20:00,35.0,19.1,29.71,NW,315,7.0,19.0,52,0.00,,,-99.99,WeatherLink 5.7,2013-03-22 17:20:00,
2013-03-22 13:25:00,35.6,20.1,29.71,NW,315,6.0,13.0,53,0.00,,,-99.99,WeatherLink 5.7,2013-03-22 17:25:00,
2013-03-22 13:30:00,36.0,19.6,29.70,NNW,337,6.0,14.0,51,0.00,,,-99.99,WeatherLink 5.7,2013-03-22 17:30:00,
2013-03-22 13:35:00,36.5,19.1,29.70,NW,315,10.0,16.0,49,0.00,,,-99.99,WeatherLink 5.7,2013-03-22 17:35:00,
2013-03-22 13:40:00,36.9,19.0,29.70,NW,315,6.0,14.0,48,0.00,,,-99.99,WeatherLink 5.7,2013-03-22 17:40:00,
2013-03-22 13:45:00,36.8,18.9,29.70,WNW,292,7.0,13.0,48,0.00,,,-99.99,WeatherLink 5.7,2013-03-22 17:45:00,
2013-03-22 13:50:00,36.6,18.7,29.70,West,270,5.0,13.0,48,0.00,,,-99.99,WeatherLink 5.7,2013-03-22 17:50:00,
2013-03-22 13:55:00,36.8,18.4,29.70,NW,315,5.0,14.0,47,0.00,,,-99.99,WeatherLink 5.7,2013-03-22 17:55:00,
2013-03-22 14:00:00,36.6,18.7,29.69,WNW,292,6.0,13.0,48,0.00,,,-99.99,WeatherLink 5.7,2013-03-22 18:00:00,
2013-03-22 14:05:00,36.5,18.6,29.69,NW,315,5.0,12.0,48,0.00,,,-99.99,WeatherLink 5.7,2013-03-22 18:05:00,
2013-03-22 14:10:00,36.3,18.0,29.69,NW,315,5.0,13.0,47,0.00,,,-99.99,WeatherLink 5.7,2013-03-22 18:10:00,
2013-03-22 14:15:00,36.0,17.7,29.69,NW,315,7.0,17.0,47,0.00,,,-99.99,WeatherLink 5.7,2013-03-22 18:15:00,
2013-03-22 14:20:00,35.9,17.1,29.69,WNW,292,7.0,13.0,46,0.00,,,-99.99,WeatherLink 5.7,2013-03-22 18:20:00,
2013-03-22 14:25:00,36.0,17.7,29.69,WNW,292,6.0,13.0,47,0.00,,,-99.99,WeatherLink 5.7,2013-03-22 18:25:00,
2013-03-22 14:30:00,36.3,17.0,29.68,West,270,6.0,13.0,45,0.00,,,-99.99,WeatherLink 5.7,2013-03-22 18:30:00,
2013-03-22 14:35:00,36.5,17.7,29.68,NW,315,7.0,14.0,46,0.00,,,-99.99,WeatherLink 5.7,2013-03-22 18:35:00,
2013-03-22 14:40:00,36.9,18.5,29.68,WNW,292,2.0,10.0,47,0.00,,,-99.99,WeatherLink 5.7,2013-03-22 18:40:00,
2013-03-22 14:45:00,37.0,17.1,29.68,WNW,292,9.0,18.0,44,0.00,,,-99.99,WeatherLink 5.7,2013-03-22 18:45:00,
2013-03-22 14:50:00,36.9,17.0,29.68,NW,315,6.0,14.0,44,0.00,,,-99.99,WeatherLink 5.7,2013-03-22 18:50:00,
2013-03-22 14:55:00,36.8,17.4,29.68,NNW,337,6.0,16.0,45,0.00,,,-99.99,WeatherLink 5.7,2013-03-22 18:55:00,
2013-03-22 15:00:00,37.0,17.6,29.68,NNW,337,5.0,9.0,45,0.00,,,-99.99,WeatherLink 5.7,2013-03-22 19:00:00,
2013-03-22 15:05:00,37.2,17.8,29.68,NW,315,4.0,10.0,45,0.00,,,-99.99,WeatherLink 5.7,2013-03-22 19:05:00,
2013-03-22 15:10:00,36.9,17.5,29.68,WNW,292,8.0,16.0,45,0.00,,,-99.99,WeatherLink 5.7,2013-03-22 19:10:00,
2013-03-22 15:15:00,36.6,17.7,29.69,WNW,292,5.0,11.0,46,0.00,,,-99.99,WeatherLink 5.7,2013-03-22 19:15:00,
2013-03-22 15:20:00,36.9,18.0,29.69,NNW,337,5.0,13.0,46,0.00,,,-99.99,WeatherLink 5.7,2013-03-22 19:20:00,
2013-03-22 15:25:00,37.3,18.4,29.69,NW,315,7.0,16.0,46,0.00,,,-99.99,WeatherLink 5.7,2013-03-22 19:25:00,
2013-03-22 15:30:00,37.9,19.4,29.69,NNW,337,7.0,13.0,47,0.00,,,-99.99,WeatherLink 5.7,2013-03-22 19:30:00,
2013-03-22 15:35:00,38.3,18.3,29.69,NW,315,9.0,17.0,44,0.00,,,-99.99,WeatherLink 5.7,2013-03-22 19:35:00,
2013-03-22 15:40:00,37.6,19.2,29.69,NW,315,6.0,15.0,47,0.00,,,-99.99,WeatherLink 5.7,2013-03-22 19:40:00,
2013-03-22 15:45:00,37.0,18.6,29.69,NW,315,7.0,17.0,47,0.00,,,-99.99,WeatherLink 5.7,2013-03-22 19:45:00,
2013-03-22 15:50:00,36.5,18.6,29.69,WNW,292,9.0,17.0,48,0.00,,,-99.99,WeatherLink 5.7,2013-03-22 19:50:00,
2013-03-22 15:55:00,35.9,19.0,29.69,NW,315,7.0,13.0,50,0.00,,,-99.99,WeatherLink 5.7,2013-03-22 19:55:00,
2013-03-22 16:00:00,35.8,20.3,29.69,NW,315,7.0,14.0,53,0.00,,,-99.99,WeatherLink 5.7,2013-03-22 20:00:00,
2013-03-22 16:05:00,35.5,20.9,29.69,NW,315,6.0,14.0,55,0.00,,,-99.99,WeatherLink 5.7,2013-03-22 20:05:00,
2013-03-22 16:10:00,35.3,20.3,29.69,WNW,292,5.0,12.0,54,0.00,,,-99.99,WeatherLink 5.7,2013-03-22 20:10:00,
2013-03-22 16:15:00,35.8,20.3,29.69,NW,315,4.0,10.0,53,0.00,,,-99.99,WeatherLink 5.7,2013-03-22 20:15:00,
2013-03-22 16:20:00,35.9,19.0,29.69,WNW,292,6.0,16.0,50,0.00,,,-99.99,WeatherLink 5.7,2013-03-22 20:20:00,
2013-03-22 16:25:00,36.0,18.7,29.69,NW,315,7.0,16.0,49,0.00,,,-99.99,WeatherLink 5.7,2013-03-22 20:25:00,
2013-03-22 16:30:00,35.9,19.5,29.69,NW,315,5.0,12.0,51,0.00,,,-99.99,WeatherLink 5.7,2013-03-22 20:30:00,
2013-03-22 16:35:00,35.9,19.0,29.69,NW,315,7.0,17.0,50,0.00,,,-99.99,WeatherLink 5.7,2013-03-22 20:35:00,
2013-03-22 16:40:00,35.9,19.0,29.69,NNW,337,6.0,11.0,50,0.00,,,-99.99,WeatherLink 5.7,2013-03-22 20:40:00,
2013-03-22 16:45:00,36.2,18.9,29.70,WNW,292,5.0,12.0,49,0.00,,,-99.99,WeatherLink 5.7,2013-03-22 20:45:00,
2013-03-22 16:50:00,36.5,18.6,29.70,NW,315,7.0,18.0,48,0.00,,,-99.99,WeatherLink 5.7,2013-03-22 20:50:00,
2013-03-22 16:55:00,36.8,19.4,29.70,NW,315,8.0,18.0,49,0.00,,,-99.99,WeatherLink 5.7,2013-03-22 20:55:00,
2013-03-22 17:00:00,36.8,18.9,29.70,NW,315,6.0,13.0,48,0.00,,,-99.99,WeatherLink 5.7,2013-03-22 21:00:00,
2013-03-22 17:05:00,36.6,19.2,29.70,NW,315,6.0,14.0,49,0.00,,,-99.99,WeatherLink 5.7,2013-03-22 21:05:00,
2013-03-22 17:10:00,36.3,18.9,29.70,WNW,292,7.0,13.0,49,0.00,,,-99.99,WeatherLink 5.7,2013-03-22 21:10:00,
2013-03-22 17:15:00,36.0,18.7,29.70,WNW,292,8.0,17.0,49,0.00,,,-99.99,WeatherLink 5.7,2013-03-22 21:15:00,
2013-03-22 17:20:00,35.9,18.6,29.70,NW,315,5.0,11.0,49,0.00,,,-99.99,WeatherLink 5.7,2013-03-22 21:20:00,
2013-03-22 17:25:00,35.9,19.0,29.70,NW,315,5.0,12.0,50,0.00,,,-99.99,WeatherLink 5.7,2013-03-22 21:25:00,
2013-03-22 17:30:00,36.0,18.7,29.71,NW,315,5.0,12.0,49,0.00,,,-99.99,WeatherLink 5.7,2013-03-22 21:30:00,
2013-03-22 17:35:00,36.0,18.7,29.71,WNW,292,7.0,13.0,49,0.00,,,-99.99,WeatherLink 5.7,2013-03-22 21:35:00,
2013-03-22 17:40:00,35.9,18.6,29.71,WNW,292,8.0,17.0,49,0.00,,,-99.99,WeatherLink 5.7,2013-03-22 21:40:00,
2013-03-22 17:45:00,35.9,18.6,29.71,NW,315,7.0,19.0,49,0.00,,,-99.99,WeatherLink 5.7,2013-03-22 21:45:00,
2013-03-22 17:50:00,35.8,18.0,29.71,NW,315,8.0,17.0,48,0.00,,,-99.99,WeatherLink 5.7,2013-03-22 21:50:00,
2013-03-22 17:55:00,35.8,18.0,29.71,NW,315,5.0,11.0,48,0.00,,,-99.99,WeatherLink 5.7,2013-03-22 21:55:00,
2013-03-22 18:00:00,35.6,18.8,29.71,NW,315,7.0,16.0,50,0.00,,,-99.99,WeatherLink 5.7,2013-03-22 22:00:00,
2013-03-22 18:05:00,35.5,18.7,29.71,NW,315,5.0,11.0,50,0.00,,,-99.99,WeatherLink 5.7,2013-03-22 22:05:00,
2013-03-22 18:10:00,35.5,18.7,29.71,NW,315,4.0,13.0,50,0.00,,,-99.99,WeatherLink 5.7,2013-03-22 22:10:00,
2013-03-22 18:15:00,35.3,19.0,29.72,WNW,292,5.0,17.0,51,0.00,,,-99.99,WeatherLink 5.7,2013-03-22 22:15:00,
2013-03-22 18:20:00,35.3,18.5,29.72,NW,315,8.0,18.0,50,0.00,,,-99.99,WeatherLink 5.7,2013-03-22 22:20:00,
2013-03-22 18:25:00,35.2,18.9,29.72,NNW,337,7.0,14.0,51,0.00,,,-99.99,WeatherLink 5.7,2013-03-22 22:25:00,
2013-03-22 18:30:00,35.0,18.7,29.73,NW,315,5.0,11.0,51,0.00,,,-99.99,WeatherLink 5.7,2013-03-22 22:30:00,
2013-03-22 18:35:00,34.9,19.0,29.73,NW,315,8.0,14.0,52,0.00,,,-99.99,WeatherLink 5.7,2013-03-22 22:35:00,
2013-03-22 18:40:00,34.9,19.0,29.73,NW,315,6.0,13.0,52,0.00,,,-99.99,WeatherLink 5.7,2013-03-22 22:40:00,
2013-03-22 18:45:00,34.7,19.3,29.73,NW,315,4.0,12.0,53,0.00,,,-99.99,WeatherLink 5.7,2013-03-22 22:45:00,
2013-03-22 18:50:00,34.6,19.2,29.73,WNW,292,5.0,14.0,53,0.00,,,-99.99,WeatherLink 5.7,2013-03-22 22:50:00,
2013-03-22 18:55:00,34.6,19.2,29.73,NW,315,3.0,10.0,53,0.00,,,-99.99,WeatherLink 5.7,2013-03-22 22:55:00,
2013-03-22 19:00:00,34.4,19.5,29.74,NW,315,6.0,12.0,54,0.00,,,-99.99,WeatherLink 5.7,2013-03-22 23:00:00,
2013-03-22 19:05:00,34.3,19.4,29.74,NW,315,5.0,13.0,54,0.00,,,-99.99,WeatherLink 5.7,2013-03-22 23:05:00,
2013-03-22 19:10:00,34.3,19.4,29.74,WNW,292,5.0,14.0,54,0.00,,,-99.99,WeatherLink 5.7,2013-03-22 23:10:00,
2013-03-22 19:15:00,34.1,20.0,29.74,NW,315,5.0,12.0,56,0.00,,,-99.99,WeatherLink 5.7,2013-03-22 23:15:00,
2013-03-22 19:20:00,34.0,19.9,29.74,NW,315,2.0,8.0,56,0.00,,,-99.99,WeatherLink 5.7,2013-03-22 23:20:00,
2013-03-22 19:25:00,34.0,19.9,29.74,NW,315,4.0,12.0,56,0.00,,,-99.99,WeatherLink 5.7,2013-03-22 23:25:00,
2013-03-22 19:30:00,33.8,20.2,29.75,NW,315,3.0,7.0,57,0.00,,,-99.99,WeatherLink 5.7,2013-03-22 23:30:00,
2013-03-22 19:35:00,33.8,20.2,29.75,NW,315,5.0,14.0,57,0.00,,,-99.99,WeatherLink 5.7,2013-03-22 23:35:00,
2013-03-22 19:40:00,33.8,20.6,29.75,NW,315,5.0,13.0,58,0.00,,,-99.99,WeatherLink 5.7,2013-03-22 23:40:00,
2013-03-22 19:45:00,33.7,20.5,29.75,WNW,292,5.0,12.0,58,0.00,,,-99.99,WeatherLink 5.7,2013-03-22 23:45:00,
2013-03-22 19:50:00,33.7,20.9,29.75,NW,315,7.0,15.0,59,0.00,,,-99.99,WeatherLink 5.7,2013-03-22 23:50:00,
2013-03-22 19:55:00,33.5,21.1,29.75,NW,315,5.0,12.0,60,0.00,,,-99.99,WeatherLink 5.7,2013-03-22 23:55:00,
2013-03-22 20:00:00,33.5,21.1,29.76,NW,315,4.0,8.0,60,0.00,,,-99.99,WeatherLink 5.7,2013-03-23 00:00:00,
2013-03-22 20:05:00,33.5,21.5,29.76,NW,315,2.0,9.0,61,0.00,,,-99.99,WeatherLink 5.7,2013-03-23 00:05:00,
2013-03-22 20:10:00,33.4,21.4,29.76,NW,315,6.0,17.0,61,0.00,,,-99.99,WeatherLink 5.7,2013-03-23 00:10:00,
2013-03-22 20:15:00,33.2,21.6,29.76,NW,315,6.0,14.0,62,0.00,,,-99.99,WeatherLink 5.7,2013-03-23 00:15:00,
2013-03-22 20:20:00,33.1,21.9,29.76,NW,315,6.0,19.0,63,0.00,,,-99.99,WeatherLink 5.7,2013-03-23 00:20:00,
2013-03-22 20:25:00,32.9,22.0,29.76,NW,315,7.0,19.0,64,0.00,,,-99.99,WeatherLink 5.7,2013-03-23 00:25:00,
2013-03-22 20:30:00,32.7,22.2,29.76,NW,315,8.0,15.0,65,0.00,,,-99.99,WeatherLink 5.7,2013-03-23 00:30:00,
2013-03-22 20:35:00,32.4,21.9,29.76,NW,315,9.0,16.0,65,0.00,,,-99.99,WeatherLink 5.7,2013-03-23 00:35:00,
2013-03-22 20:40:00,32.2,22.1,29.76,NW,315,8.0,16.0,66,0.00,,,-99.99,WeatherLink 5.7,2013-03-23 00:40:00,
2013-03-22 20:45:00,32.1,22.4,29.77,NW,315,5.0,13.0,67,0.00,,,-99.99,WeatherLink 5.7,2013-03-23 00:45:00,
2013-03-22 20:50:00,32.1,22.7,29.77,NW,315,6.0,14.0,68,0.00,,,-99.99,WeatherLink 5.7,2013-03-23 00:50:00,
2013-03-22 20:55:00,32.1,22.7,29.77,NNW,337,7.0,14.0,68,0.00,,,-99.99,WeatherLink 5.7,2013-03-23 00:55:00,
2013-03-22 21:00:00,31.9,22.9,29.77,NW,315,5.0,13.0,69,0.00,,,-99.99,WeatherLink 5.7,2013-03-23 01:00:00,
2013-03-22 21:05:00,31.8,22.8,29.77,NW,315,4.0,9.0,69,0.00,,,-99.99,WeatherLink 5.7,2013-03-23 01:05:00,
2013-03-22 21:10:00,31.8,23.1,29.77,NW,315,5.0,12.0,70,0.00,,,-99.99,WeatherLink 5.7,2013-03-23 01:10:00,
2013-03-22 21:15:00,31.6,22.9,29.77,NW,315,6.0,14.0,70,0.00,,,-99.99,WeatherLink 5.7,2013-03-23 01:15:00,
2013-03-22 21:20:00,31.5,22.8,29.77,NW,315,6.0,13.0,70,0.00,,,-99.99,WeatherLink 5.7,2013-03-23 01:20:00,
2013-03-22 21:25:00,31.3,22.6,29.77,NW,315,5.0,16.0,70,0.00,,,-99.99,WeatherLink 5.7,2013-03-23 01:25:00,
2013-03-22 21:30:00,31.0,22.4,29.78,NNW,337,6.0,13.0,70,0.00,,,-99.99,WeatherLink 5.7,2013-03-23 01:30:00,
2013-03-22 21:35:00,30.9,21.9,29.78,NW,315,7.0,12.0,69,0.00,,,-99.99,WeatherLink 5.7,2013-03-23 01:35:00,
2013-03-22 21:40:00,30.7,21.7,29.78,NW,315,5.0,11.0,69,0.00,,,-99.99,WeatherLink 5.7,2013-03-23 01:40:00,
2013-03-22 21:45:00,30.6,21.6,29.79,NW,315,5.0,13.0,69,0.00,,,-99.99,WeatherLink 5.7,2013-03-23 01:45:00,
2013-03-22 21:50:00,30.4,21.1,29.79,NW,315,5.0,12.0,68,0.00,,,-99.99,WeatherLink 5.7,2013-03-23 01:50:00,
2013-03-22 21:55:00,30.3,21.0,29.79,NW,315,6.0,13.0,68,0.00,,,-99.99,WeatherLink 5.7,2013-03-23 01:55:00,
2013-03-22 22:00:00,30.1,20.8,29.79,NNW,337,5.0,12.0,68,0.00,,,-99.99,WeatherLink 5.7,2013-03-23 02:00:00,
2013-03-22 22:05:00,30.0,20.7,29.79,NNW,337,5.0,12.0,68,0.00,,,-99.99,WeatherLink 5.7,2013-03-23 02:05:00,
2013-03-22 22:10:00,30.0,20.7,29.79,NNW,337,3.0,11.0,68,0.00,,,-99.99,WeatherLink 5.7,2013-03-23 02:10:00,
2013-03-22 22:15:00,29.8,20.5,29.79,NW,315,5.0,12.0,68,0.00,,,-99.99,WeatherLink 5.7,2013-03-23 02:15:00,
2013-03-22 22:20:00,29.8,20.5,29.79,NW,315,4.0,10.0,68,0.00,,,-99.99,WeatherLink 5.7,2013-03-23 02:20:00,
2013-03-22 22:25:00,29.7,20.4,29.79,NNW,337,1.0,5.0,68,0.00,,,-99.99,WeatherLink 5.7,2013-03-23 02:25:00,
2013-03-22 22:30:00,29.7,20.8,29.79,NW,315,4.0,7.0,69,0.00,,,-99.99,WeatherLink 5.7,2013-03-23 02:30:00,
2013-03-22 22:35:00,29.5,20.6,29.79,WNW,292,3.0,7.0,69,0.00,,,-99.99,WeatherLink 5.7,2013-03-23 02:35:00,
2013-03-22 22:40:00,29.4,20.5,29.79,NW,315,3.0,9.0,69,0.00,,,-99.99,WeatherLink 5.7,2013-03-23 02:40:00,
2013-03-22 22:45:00,29.4,20.5,29.79,NW,315,5.0,12.0,69,0.00,,,-99.99,WeatherLink 5.7,2013-03-23 02:45:00,
2013-03-22 22:50:00,29.4,20.5,29.79,NW,315,6.0,14.0,69,0.00,,,-99.99,WeatherLink 5.7,2013-03-23 02:50:00,
2013-03-22 22:55:00,29.4,20.5,29.79,WNW,292,5.0,14.0,69,0.00,,,-99.99,WeatherLink 5.7,2013-03-23 02:55:00,
2013-03-22 23:00:00,29.4,20.5,29.79,NW,315,3.0,13.0,69,0.00,,,-99.99,WeatherLink 5.7,2013-03-23 03:00:00,
2013-03-22 23:05:00,29.4,20.5,29.79,NW,315,5.0,12.0,69,0.00,,,-99.99,WeatherLink 5.7,2013-03-23 03:05:00,
2013-03-22 23:10:00,29.4,20.5,29.79,NW,315,2.0,7.0,69,0.00,,,-99.99,WeatherLink 5.7,2013-03-23 03:10:00,
2013-03-22 23:15:00,29.5,20.6,29.80,NW,315,3.0,10.0,69,0.00,,,-99.99,WeatherLink 5.7,2013-03-23 03:15:00,
2013-03-22 23:20:00,29.5,20.6,29.80,NW,315,2.0,7.0,69,0.00,,,-99.99,WeatherLink 5.7,2013-03-23 03:20:00,
2013-03-22 23:25:00,29.7,20.8,29.80,NW,315,3.0,10.0,69,0.00,,,-99.99,WeatherLink 5.7,2013-03-23 03:25:00,
2013-03-22 23:30:00,29.8,20.9,29.79,NW,315,2.0,6.0,69,0.00,,,-99.99,WeatherLink 5.7,2013-03-23 03:30:00,
2013-03-22 23:35:00,29.8,20.9,29.79,NW,315,2.0,6.0,69,0.00,,,-99.99,WeatherLink 5.7,2013-03-23 03:35:00,
2013-03-22 23:40:00,30.0,21.1,29.79,NW,315,1.0,5.0,69,0.00,,,-99.99,WeatherLink 5.7,2013-03-23 03:40:00,
2013-03-22 23:45:00,30.0,20.7,29.78,NW,315,2.0,8.0,68,0.00,,,-99.99,WeatherLink 5.7,2013-03-23 03:45:00,
2013-03-22 23:50:00,30.0,20.7,29.78,NW,315,2.0,7.0,68,0.00,,,-99.99,WeatherLink 5.7,2013-03-23 03:50:00,
2013-03-22 23:55:00,30.1,20.8,29.78,NNW,337,3.0,7.0,68,0.00,,,-99.99,WeatherLink 5.7,2013-03-23 03:55:00,